Decoded Metar for KAVX (AVALON in CA, USA) (IATA:AVX) | Meteo·Mobile Aviation Weather
aviador You're here:

KAVX Decoded Metar

AVALON in CA, USA
Report Time2019-06-27 07:51:00
UTC Time2019-06-27 08:35:06
Flight Rules lifr LIFR
Wind200° at 04 kt
W.Decomp.*RWY 22: 3.3 kt HW 2.2 kt LCW
Visibility9999 m
Phenomena:N/A
Clouds:Overcast 002 Hf
Ceiling200 ft
Temp13°C (ISA +1)
Dew Point13°C (100% RH)
AAT12.5°C
QNH1016 hPa
Density Alt1,821 ft
Elevation1,581 ft
Report Wrong Elevation
Raw Report
KAVX 270751Z AUTO 20004KT 7SM OVC002 13/13 A3000 RMK AO2 SLP150
T01330133 401670128 $=

Extra information for KAVX:More info

Metar Taf Metar & Taf Last 4 Metars F.Rules Stats Wind Profile Meteogram Temp Stats Airport Information Weather charts Add Link Nearby VenuesMetar ALERT Operation Metar Decoded Social comments

AIRNAV info for KAVX